sensor_id;sensor_type;location;lat;lon;timestamp;P1;durP1;ratioP1;P2;durP2;ratioP2
26977;SDS011;56314;48.088;11.642;2023-02-15T00:01:36;20.27;;;12.18;;
26977;SDS011;56314;48.088;11.642;2023-02-15T00:04:01;22.30;;;11.93;;
26977;SDS011;56314;48.088;11.642;2023-02-15T00:06:27;22.08;;;10.82;;
26977;SDS011;56314;48.088;11.642;2023-02-15T00:08:53;24.98;;;13.02;;
26977;SDS011;56314;48.088;11.642;2023-02-15T00:11:19;31.58;;;12.50;;
26977;SDS011;56314;48.088;11.642;2023-02-15T00:16:31;70.82;;;13.63;;
26977;SDS011;56314;48.088;11.642;2023-02-15T00:18:56;72.22;;;13.77;;
26977;SDS011;56314;48.088;11.642;2023-02-15T00:21:21;27.33;;;12.65;;
26977;SDS011;56314;48.088;11.642;2023-02-15T00:23:47;62.55;;;14.18;;
26977;SDS011;56314;48.088;11.642;2023-02-15T00:26:12;33.22;;;12.80;;
26977;SDS011;56314;48.088;11.642;2023-02-15T00:28:38;25.75;;;12.48;;
26977;SDS011;56314;48.088;11.642;2023-02-15T00:31:07;22.48;;;12.30;;
26977;SDS011;56314;48.088;11.642;2023-02-15T00:33:37;20.73;;;13.37;;
26977;SDS011;56314;48.088;11.642;2023-02-15T00:36:04;22.33;;;12.85;;
26977;SDS011;56314;48.088;11.642;2023-02-15T00:38:31;17.17;;;12.07;;
26977;SDS011;56314;48.088;11.642;2023-02-15T00:40:57;27.92;;;13.57;;
26977;SDS011;56314;48.088;11.642;2023-02-15T00:43:25;43.92;;;13.20;;
26977;SDS011;56314;48.088;11.642;2023-02-15T00:45:51;23.85;;;12.23;;
26977;SDS011;56314;48.088;11.642;2023-02-15T00:48:16;20.60;;;12.68;;
26977;SDS011;56314;48.088;11.642;2023-02-15T00:50:44;44.95;;;13.68;;
26977;SDS011;56314;48.088;11.642;2023-02-15T00:53:17;56.55;;;13.65;;
26977;SDS011;56314;48.088;11.642;2023-02-15T00:55:43;42.75;;;13.35;;
26977;SDS011;56314;48.088;11.642;2023-02-15T00:58:08;35.22;;;13.77;;
26977;SDS011;56314;48.088;11.642;2023-02-15T01:00:35;36.13;;;13.20;;
26977;SDS011;56314;48.088;11.642;2023-02-15T01:03:00;63.83;;;14.98;;
26977;SDS011;56314;48.088;11.642;2023-02-15T01:05:25;45.13;;;13.75;;
26977;SDS011;56314;48.088;11.642;2023-02-15T01:07:51;58.63;;;15.00;;
26977;SDS011;56314;48.088;11.642;2023-02-15T01:10:16;35.20;;;13.80;;
26977;SDS011;56314;48.088;11.642;2023-02-15T01:12:42;55.95;;;14.13;;
26977;SDS011;56314;48.088;11.642;2023-02-15T01:15:08;34.35;;;13.73;;
26977;SDS011;56314;48.088;11.642;2023-02-15T01:17:33;53.85;;;13.13;;
26977;SDS011;56314;48.088;11.642;2023-02-15T01:19:59;71.57;;;18.40;;
26977;SDS011;56314;48.088;11.642;2023-02-15T01:22:24;59.13;;;14.80;;
26977;SDS011;56314;48.088;11.642;2023-02-15T01:24:49;50.55;;;14.20;;
26977;SDS011;56314;48.088;11.642;2023-02-15T01:27:15;52.28;;;14.88;;
26977;SDS011;56314;48.088;11.642;2023-02-15T01:29:40;47.60;;;13.82;;
26977;SDS011;56314;48.088;11.642;2023-02-15T01:32:06;36.95;;;14.18;;
26977;SDS011;56314;48.088;11.642;2023-02-15T01:34:31;54.13;;;13.68;;
26977;SDS011;56314;48.088;11.642;2023-02-15T01:36:56;42.58;;;13.80;;
26977;SDS011;56314;48.088;11.642;2023-02-15T01:39:22;25.45;;;13.48;;
26977;SDS011;56314;48.088;11.642;2023-02-15T01:41:47;55.75;;;14.30;;
26977;SDS011;56314;48.088;11.642;2023-02-15T01:47:16;47.08;;;14.63;;
26977;SDS011;56314;48.088;11.642;2023-02-15T01:49:47;45.83;;;14.10;;
26977;SDS011;56314;48.088;11.642;2023-02-15T01:52:14;36.90;;;15.35;;
26977;SDS011;56314;48.088;11.642;2023-02-15T01:54:42;62.38;;;15.68;;
26977;SDS011;56314;48.088;11.642;2023-02-15T01:57:14;32.45;;;14.73;;
26977;SDS011;56314;48.088;11.642;2023-02-15T01:59:46;48.78;;;14.50;;
26977;SDS011;56314;48.088;11.642;2023-02-15T02:02:16;47.33;;;15.77;;
26977;SDS011;56314;48.088;11.642;2023-02-15T02:07:14;46.00;;;13.95;;
26977;SDS011;56314;48.088;11.642;2023-02-15T02:09:44;39.72;;;15.95;;
26977;SDS011;56314;48.088;11.642;2023-02-15T02:12:10;52.85;;;15.43;;
26977;SDS011;56314;48.088;11.642;2023-02-15T02:14:36;42.75;;;15.38;;
26977;SDS011;56314;48.088;11.642;2023-02-15T02:17:12;75.97;;;16.02;;
26977;SDS011;56314;48.088;11.642;2023-02-15T02:33:41;56.28;;;15.07;;
26977;SDS011;56314;48.088;11.642;2023-02-15T02:36:17;30.45;;;13.23;;
26977;SDS011;56314;48.088;11.642;2023-02-15T02:44:25;76.75;;;16.10;;
26977;SDS011;56314;48.088;11.642;2023-02-15T02:47:02;37.45;;;13.07;;
26977;SDS011;56314;48.088;11.642;2023-02-15T02:49:37;63.15;;;14.88;;
26977;SDS011;56314;48.088;11.642;2023-02-15T02:52:05;54.78;;;15.63;;
26977;SDS011;56314;48.088;11.642;2023-02-15T02:54:49;79.13;;;16.20;;
26977;SDS011;56314;48.088;11.642;2023-02-15T02:57:15;55.03;;;15.60;;
26977;SDS011;56314;48.088;11.642;2023-02-15T02:59:42;67.47;;;15.68;;
26977;SDS011;56314;48.088;11.642;2023-02-15T03:02:13;47.65;;;14.88;;
26977;SDS011;56314;48.088;11.642;2023-02-15T03:04:45;59.42;;;14.88;;
26977;SDS011;56314;48.088;11.642;2023-02-15T03:07:20;89.35;;;17.17;;
26977;SDS011;56314;48.088;11.642;2023-02-15T03:09:49;43.72;;;14.30;;
26977;SDS011;56314;48.088;11.642;2023-02-15T03:12:19;69.15;;;16.00;;
26977;SDS011;56314;48.088;11.642;2023-02-15T03:14:48;36.53;;;13.98;;
26977;SDS011;56314;48.088;11.642;2023-02-15T03:17:20;32.92;;;15.20;;
26977;SDS011;56314;48.088;11.642;2023-02-15T03:19:47;28.85;;;14.65;;
26977;SDS011;56314;48.088;11.642;2023-02-15T03:22:18;38.28;;;16.00;;
26977;SDS011;56314;48.088;11.642;2023-02-15T03:24:50;33.03;;;15.57;;
26977;SDS011;56314;48.088;11.642;2023-02-15T03:27:22;30.98;;;14.30;;
26977;SDS011;56314;48.088;11.642;2023-02-15T03:29:52;49.95;;;14.13;;
26977;SDS011;56314;48.088;11.642;2023-02-15T03:32:20;30.02;;;13.50;;
26977;SDS011;56314;48.088;11.642;2023-02-15T03:34:46;25.85;;;14.20;;
26977;SDS011;56314;48.088;11.642;2023-02-15T03:37:17;42.40;;;14.05;;
26977;SDS011;56314;48.088;11.642;2023-02-15T03:45:58;36.00;;;13.60;;
26977;SDS011;56314;48.088;11.642;2023-02-15T03:48:32;20.33;;;13.43;;
26977;SDS011;56314;48.088;11.642;2023-02-15T03:51:02;22.80;;;11.27;;
26977;SDS011;56314;48.088;11.642;2023-02-15T03:53:51;21.63;;;13.00;;
26977;SDS011;56314;48.088;11.642;2023-02-15T03:56:18;23.13;;;12.50;;
26977;SDS011;56314;48.088;11.642;2023-02-15T03:58:44;29.67;;;12.20;;
26977;SDS011;56314;48.088;11.642;2023-02-15T04:01:35;24.37;;;13.07;;
26977;SDS011;56314;48.088;11.642;2023-02-15T04:06:58;32.97;;;13.45;;
26977;SDS011;56314;48.088;11.642;2023-02-15T04:09:24;29.95;;;13.25;;
26977;SDS011;56314;48.088;11.642;2023-02-15T04:12:08;36.03;;;13.70;;
26977;SDS011;56314;48.088;11.642;2023-02-15T04:14:33;28.48;;;14.40;;
26977;SDS011;56314;48.088;11.642;2023-02-15T04:17:35;21.25;;;13.02;;
26977;SDS011;56314;48.088;11.642;2023-02-15T04:20:01;32.72;;;13.15;;
26977;SDS011;56314;48.088;11.642;2023-02-15T04:22:45;21.17;;;13.10;;
26977;SDS011;56314;48.088;11.642;2023-02-15T04:25:29;24.35;;;13.10;;
26977;SDS011;56314;48.088;11.642;2023-02-15T04:27:54;18.80;;;12.40;;
26977;SDS011;56314;48.088;11.642;2023-02-15T04:30:21;21.30;;;12.30;;
26977;SDS011;56314;48.088;11.642;2023-02-15T04:32:48;23.55;;;12.85;;
26977;SDS011;56314;48.088;11.642;2023-02-15T04:35:14;32.35;;;12.77;;
26977;SDS011;56314;48.088;11.642;2023-02-15T04:37:40;40.13;;;11.68;;
26977;SDS011;56314;48.088;11.642;2023-02-15T04:40:07;28.10;;;12.30;;
26977;SDS011;56314;48.088;11.642;2023-02-15T04:42:34;30.02;;;13.98;;
26977;SDS011;56314;48.088;11.642;2023-02-15T04:44:59;41.17;;;12.77;;
26977;SDS011;56314;48.088;11.642;2023-02-15T04:47:24;63.47;;;14.90;;
26977;SDS011;56314;48.088;11.642;2023-02-15T04:49:50;36.53;;;12.93;;
26977;SDS011;56314;48.088;11.642;2023-02-15T04:52:15;29.73;;;12.40;;
26977;SDS011;56314;48.088;11.642;2023-02-15T04:54:42;30.50;;;13.35;;
26977;SDS011;56314;48.088;11.642;2023-02-15T04:57:08;59.15;;;14.90;;
26977;SDS011;56314;48.088;11.642;2023-02-15T04:59:34;48.10;;;13.98;;
26977;SDS011;56314;48.088;11.642;2023-02-15T05:01:59;27.20;;;13.18;;
26977;SDS011;56314;48.088;11.642;2023-02-15T05:04:24;54.30;;;14.68;;
26977;SDS011;56314;48.088;11.642;2023-02-15T05:06:50;55.80;;;13.93;;
26977;SDS011;56314;48.088;11.642;2023-02-15T05:09:15;29.73;;;13.43;;
26977;SDS011;56314;48.088;11.642;2023-02-15T05:11:41;26.60;;;12.95;;
26977;SDS011;56314;48.088;11.642;2023-02-15T05:14:07;42.22;;;14.05;;
26977;SDS011;56314;48.088;11.642;2023-02-15T05:16:32;26.40;;;14.73;;
26977;SDS011;56314;48.088;11.642;2023-02-15T05:18:57;29.77;;;13.63;;
26977;SDS011;56314;48.088;11.642;2023-02-15T05:21:23;25.42;;;13.23;;
26977;SDS011;56314;48.088;11.642;2023-02-15T05:23:48;37.70;;;14.20;;
26977;SDS011;56314;48.088;11.642;2023-02-15T05:26:17;30.63;;;13.02;;
26977;SDS011;56314;48.088;11.642;2023-02-15T05:29:03;25.63;;;13.35;;
26977;SDS011;56314;48.088;11.642;2023-02-15T05:31:30;26.38;;;13.00;;
26977;SDS011;56314;48.088;11.642;2023-02-15T05:33:56;29.85;;;12.35;;
26977;SDS011;56314;48.088;11.642;2023-02-15T05:36:21;29.20;;;12.80;;
26977;SDS011;56314;48.088;11.642;2023-02-15T05:38:46;26.48;;;13.15;;
26977;SDS011;56314;48.088;11.642;2023-02-15T05:41:12;64.22;;;16.77;;
26977;SDS011;56314;48.088;11.642;2023-02-15T05:43:37;76.70;;;13.52;;
26977;SDS011;56314;48.088;11.642;2023-02-15T05:46:03;39.05;;;12.82;;
26977;SDS011;56314;48.088;11.642;2023-02-15T05:48:29;46.55;;;12.63;;
26977;SDS011;56314;48.088;11.642;2023-02-15T05:53:28;28.23;;;13.27;;
26977;SDS011;56314;48.088;11.642;2023-02-15T05:55:54;37.25;;;13.75;;
26977;SDS011;56314;48.088;11.642;2023-02-15T05:58:24;45.40;;;13.93;;
26977;SDS011;56314;48.088;11.642;2023-02-15T06:00:53;43.13;;;14.20;;
26977;SDS011;56314;48.088;11.642;2023-02-15T06:03:18;40.05;;;13.88;;
26977;SDS011;56314;48.088;11.642;2023-02-15T06:05:44;57.88;;;14.77;;
26977;SDS011;56314;48.088;11.642;2023-02-15T06:08:09;52.67;;;13.52;;
26977;SDS011;56314;48.088;11.642;2023-02-15T06:10:34;53.60;;;14.30;;
26977;SDS011;56314;48.088;11.642;2023-02-15T06:13:00;39.92;;;14.48;;
26977;SDS011;56314;48.088;11.642;2023-02-15T06:15:25;65.53;;;16.15;;
26977;SDS011;56314;48.088;11.642;2023-02-15T06:17:51;58.55;;;16.02;;
26977;SDS011;56314;48.088;11.642;2023-02-15T06:20:16;53.95;;;15.88;;
26977;SDS011;56314;48.088;11.642;2023-02-15T06:22:42;73.55;;;15.77;;
26977;SDS011;56314;48.088;11.642;2023-02-15T06:25:07;26.33;;;13.90;;
26977;SDS011;56314;48.088;11.642;2023-02-15T06:27:35;49.47;;;14.77;;
26977;SDS011;56314;48.088;11.642;2023-02-15T06:30:00;64.25;;;14.68;;
26977;SDS011;56314;48.088;11.642;2023-02-15T06:32:26;56.15;;;15.02;;
26977;SDS011;56314;48.088;11.642;2023-02-15T06:34:51;54.15;;;14.38;;
26977;SDS011;56314;48.088;11.642;2023-02-15T06:37:16;52.45;;;14.07;;
26977;SDS011;56314;48.088;11.642;2023-02-15T06:39:42;33.33;;;13.27;;
26977;SDS011;56314;48.088;11.642;2023-02-15T06:42:07;52.03;;;15.05;;
26977;SDS011;56314;48.088;11.642;2023-02-15T06:44:33;26.45;;;13.93;;
26977;SDS011;56314;48.088;11.642;2023-02-15T06:46:58;35.88;;;13.75;;
26977;SDS011;56314;48.088;11.642;2023-02-15T06:49:23;36.50;;;14.48;;
26977;SDS011;56314;48.088;11.642;2023-02-15T06:51:49;25.38;;;14.00;;
26977;SDS011;56314;48.088;11.642;2023-02-15T06:54:14;26.67;;;14.55;;
26977;SDS011;56314;48.088;11.642;2023-02-15T06:56:39;23.30;;;12.88;;
26977;SDS011;56314;48.088;11.642;2023-02-15T06:59:05;29.95;;;14.18;;
26977;SDS011;56314;48.088;11.642;2023-02-15T07:01:30;26.92;;;13.98;;
26977;SDS011;56314;48.088;11.642;2023-02-15T07:03:55;23.55;;;13.65;;
26977;SDS011;56314;48.088;11.642;2023-02-15T07:06:21;28.00;;;14.07;;
26977;SDS011;56314;48.088;11.642;2023-02-15T07:08:46;23.98;;;12.40;;
26977;SDS011;56314;48.088;11.642;2023-02-15T07:11:11;31.83;;;13.85;;
26977;SDS011;56314;48.088;11.642;2023-02-15T07:13:55;43.05;;;13.88;;
26977;SDS011;56314;48.088;11.642;2023-02-15T07:16:21;24.83;;;14.60;;
26977;SDS011;56314;48.088;11.642;2023-02-15T07:18:47;25.48;;;13.20;;
26977;SDS011;56314;48.088;11.642;2023-02-15T07:21:12;27.83;;;14.13;;
26977;SDS011;56314;48.088;11.642;2023-02-15T07:23:38;27.88;;;14.43;;
26977;SDS011;56314;48.088;11.642;2023-02-15T07:26:04;39.72;;;16.02;;
26977;SDS011;56314;48.088;11.642;2023-02-15T07:28:31;36.20;;;16.52;;
26977;SDS011;56314;48.088;11.642;2023-02-15T07:30:58;33.35;;;16.13;;
26977;SDS011;56314;48.088;11.642;2023-02-15T07:33:23;32.13;;;16.77;;
26977;SDS011;56314;48.088;11.642;2023-02-15T07:35:53;34.38;;;16.45;;
26977;SDS011;56314;48.088;11.642;2023-02-15T07:38:20;29.95;;;16.27;;
26977;SDS011;56314;48.088;11.642;2023-02-15T07:40:46;34.55;;;16.58;;
26977;SDS011;56314;48.088;11.642;2023-02-15T07:43:12;31.00;;;16.73;;
26977;SDS011;56314;48.088;11.642;2023-02-15T07:45:39;34.35;;;17.48;;
26977;SDS011;56314;48.088;11.642;2023-02-15T07:48:05;34.05;;;17.38;;
26977;SDS011;56314;48.088;11.642;2023-02-15T07:50:31;30.73;;;16.67;;
26977;SDS011;56314;48.088;11.642;2023-02-15T07:52:57;32.22;;;17.38;;
26977;SDS011;56314;48.088;11.642;2023-02-15T07:55:23;30.77;;;17.30;;
26977;SDS011;56314;48.088;11.642;2023-02-15T07:57:50;33.50;;;17.67;;
26977;SDS011;56314;48.088;11.642;2023-02-15T08:00:17;35.33;;;18.55;;
26977;SDS011;56314;48.088;11.642;2023-02-15T08:02:49;36.53;;;18.45;;
26977;SDS011;56314;48.088;11.642;2023-02-15T08:05:36;26.88;;;15.57;;
26977;SDS011;56314;48.088;11.642;2023-02-15T08:08:01;41.83;;;18.10;;
26977;SDS011;56314;48.088;11.642;2023-02-15T08:10:27;26.80;;;15.75;;
26977;SDS011;56314;48.088;11.642;2023-02-15T08:13:12;28.48;;;15.45;;
26977;SDS011;56314;48.088;11.642;2023-02-15T08:15:38;27.73;;;16.75;;
26977;SDS011;56314;48.088;11.642;2023-02-15T08:18:03;25.83;;;16.25;;
26977;SDS011;56314;48.088;11.642;2023-02-15T08:20:28;30.38;;;16.08;;
26977;SDS011;56314;48.088;11.642;2023-02-15T08:22:54;27.88;;;15.07;;
26977;SDS011;56314;48.088;11.642;2023-02-15T08:25:19;24.52;;;14.77;;
26977;SDS011;56314;48.088;11.642;2023-02-15T08:27:44;20.05;;;12.77;;
26977;SDS011;56314;48.088;11.642;2023-02-15T08:30:10;22.38;;;13.75;;
26977;SDS011;56314;48.088;11.642;2023-02-15T08:32:36;20.70;;;12.13;;
26977;SDS011;56314;48.088;11.642;2023-02-15T08:35:02;16.90;;;11.43;;
26977;SDS011;56314;48.088;11.642;2023-02-15T08:37:27;18.00;;;11.75;;
26977;SDS011;56314;48.088;11.642;2023-02-15T08:39:52;17.10;;;12.10;;
26977;SDS011;56314;48.088;11.642;2023-02-15T08:42:17;17.67;;;11.25;;
26977;SDS011;56314;48.088;11.642;2023-02-15T08:44:45;16.90;;;11.35;;
26977;SDS011;56314;48.088;11.642;2023-02-15T08:47:10;18.48;;;11.27;;
26977;SDS011;56314;48.088;11.642;2023-02-15T08:49:35;14.20;;;10.82;;
26977;SDS011;56314;48.088;11.642;2023-02-15T08:52:01;15.40;;;10.68;;
26977;SDS011;56314;48.088;11.642;2023-02-15T08:54:26;14.98;;;10.25;;
26977;SDS011;56314;48.088;11.642;2023-02-15T08:56:51;13.23;;;9.48;;
26977;SDS011;56314;48.088;11.642;2023-02-15T08:59:18;14.48;;;9.98;;
26977;SDS011;56314;48.088;11.642;2023-02-15T09:01:45;18.15;;;11.27;;
26977;SDS011;56314;48.088;11.642;2023-02-15T09:04:12;15.13;;;9.75;;
26977;SDS011;56314;48.088;11.642;2023-02-15T09:06:38;12.90;;;9.48;;
26977;SDS011;56314;48.088;11.642;2023-02-15T09:09:04;12.52;;;9.45;;
26977;SDS011;56314;48.088;11.642;2023-02-15T09:11:32;11.20;;;9.65;;
26977;SDS011;56314;48.088;11.642;2023-02-15T09:14:00;10.18;;;9.00;;
26977;SDS011;56314;48.088;11.642;2023-02-15T09:16:29;11.85;;;10.10;;
26977;SDS011;56314;48.088;11.642;2023-02-15T09:18:56;16.05;;;9.15;;
26977;SDS011;56314;48.088;11.642;2023-02-15T09:21:22;11.07;;;8.90;;
26977;SDS011;56314;48.088;11.642;2023-02-15T09:23:50;11.68;;;9.13;;
26977;SDS011;56314;48.088;11.642;2023-02-15T09:26:20;13.50;;;9.35;;
26977;SDS011;56314;48.088;11.642;2023-02-15T09:28:47;10.80;;;9.00;;
26977;SDS011;56314;48.088;11.642;2023-02-15T09:31:17;13.20;;;10.10;;
26977;SDS011;56314;48.088;11.642;2023-02-15T09:33:45;11.35;;;9.40;;
26977;SDS011;56314;48.088;11.642;2023-02-15T09:36:18;12.52;;;10.57;;
26977;SDS011;56314;48.088;11.642;2023-02-15T09:38:52;10.30;;;8.88;;
26977;SDS011;56314;48.088;11.642;2023-02-15T09:52:45;12.27;;;10.07;;
26977;SDS011;56314;48.088;11.642;2023-02-15T10:01:01;11.00;;;9.45;;
26977;SDS011;56314;48.088;11.642;2023-02-15T10:03:53;13.27;;;10.07;;
26977;SDS011;56314;48.088;11.642;2023-02-15T10:06:33;11.25;;;9.65;;
26977;SDS011;56314;48.088;11.642;2023-02-15T10:28:37;11.15;;;9.10;;
26977;SDS011;56314;48.088;11.642;2023-02-15T10:31:22;12.13;;;8.32;;
26977;SDS011;56314;48.088;11.642;2023-02-15T10:34:09;11.10;;;8.77;;
26977;SDS011;56314;48.088;11.642;2023-02-15T10:39:34;24.60;;;16.45;;
26977;SDS011;56314;48.088;11.642;2023-02-15T10:42:35;11.95;;;8.73;;
26977;SDS011;56314;48.088;11.642;2023-02-15T10:45:53;12.27;;;9.15;;
26977;SDS011;56314;48.088;11.642;2023-02-15T10:48:48;14.63;;;9.90;;
26977;SDS011;56314;48.088;11.642;2023-02-15T10:51:30;13.45;;;9.15;;
26977;SDS011;56314;48.088;11.642;2023-02-15T10:57:21;11.63;;;9.02;;
26977;SDS011;56314;48.088;11.642;2023-02-15T11:00:13;13.70;;;10.27;;
26977;SDS011;56314;48.088;11.642;2023-02-15T11:05:45;12.60;;;9.68;;
26977;SDS011;56314;48.088;11.642;2023-02-15T11:08:29;14.18;;;9.10;;
26977;SDS011;56314;48.088;11.642;2023-02-15T11:10:58;13.63;;;9.77;;
26977;SDS011;56314;48.088;11.642;2023-02-15T11:13:27;11.45;;;9.32;;
26977;SDS011;56314;48.088;11.642;2023-02-15T11:16:03;20.17;;;11.23;;
26977;SDS011;56314;48.088;11.642;2023-02-15T11:18:43;18.65;;;10.88;;
26977;SDS011;56314;48.088;11.642;2023-02-15T11:23:42;15.60;;;10.97;;
26977;SDS011;56314;48.088;11.642;2023-02-15T11:26:27;13.88;;;11.02;;
26977;SDS011;56314;48.088;11.642;2023-02-15T11:29:01;21.98;;;11.02;;
26977;SDS011;56314;48.088;11.642;2023-02-15T11:31:42;15.07;;;10.95;;
26977;SDS011;56314;48.088;11.642;2023-02-15T11:34:12;15.38;;;11.52;;
26977;SDS011;56314;48.088;11.642;2023-02-15T11:36:43;17.65;;;11.32;;
26977;SDS011;56314;48.088;11.642;2023-02-15T11:39:13;17.92;;;11.30;;
26977;SDS011;56314;48.088;11.642;2023-02-15T11:41:44;18.25;;;11.13;;
26977;SDS011;56314;48.088;11.642;2023-02-15T11:44:32;16.95;;;11.18;;
26977;SDS011;56314;48.088;11.642;2023-02-15T11:47:02;19.20;;;11.63;;
26977;SDS011;56314;48.088;11.642;2023-02-15T11:49:32;17.90;;;10.95;;
26977;SDS011;56314;48.088;11.642;2023-02-15T11:52:00;15.88;;;11.35;;
26977;SDS011;56314;48.088;11.642;2023-02-15T11:54:30;15.32;;;11.18;;
26977;SDS011;56314;48.088;11.642;2023-02-15T11:56:59;17.60;;;11.43;;
26977;SDS011;56314;48.088;11.642;2023-02-15T11:59:37;16.23;;;11.68;;
26977;SDS011;56314;48.088;11.642;2023-02-15T12:02:15;18.02;;;11.20;;
26977;SDS011;56314;48.088;11.642;2023-02-15T12:04:43;17.63;;;11.93;;
26977;SDS011;56314;48.088;11.642;2023-02-15T12:07:19;15.82;;;11.63;;
26977;SDS011;56314;48.088;11.642;2023-02-15T12:09:52;21.70;;;11.73;;
26977;SDS011;56314;48.088;11.642;2023-02-15T12:12:30;16.05;;;11.38;;
26977;SDS011;56314;48.088;11.642;2023-02-15T12:14:59;15.05;;;11.68;;
26977;SDS011;56314;48.088;11.642;2023-02-15T12:17:31;17.85;;;11.10;;
26977;SDS011;56314;48.088;11.642;2023-02-15T12:20:01;40.10;;;21.95;;
26977;SDS011;56314;48.088;11.642;2023-02-15T12:22:33;19.42;;;11.68;;
26977;SDS011;56314;48.088;11.642;2023-02-15T12:25:02;23.15;;;13.68;;
26977;SDS011;56314;48.088;11.642;2023-02-15T12:27:44;17.17;;;12.27;;
26977;SDS011;56314;48.088;11.642;2023-02-15T12:35:38;22.42;;;13.50;;
26977;SDS011;56314;48.088;11.642;2023-02-15T12:38:05;25.70;;;12.70;;
26977;SDS011;56314;48.088;11.642;2023-02-15T12:40:33;20.40;;;13.73;;
26977;SDS011;56314;48.088;11.642;2023-02-15T12:43:00;22.63;;;12.25;;
26977;SDS011;56314;48.088;11.642;2023-02-15T12:45:33;18.77;;;13.10;;
26977;SDS011;56314;48.088;11.642;2023-02-15T12:50:42;18.83;;;11.88;;
26977;SDS011;56314;48.088;11.642;2023-02-15T12:53:18;19.17;;;11.73;;
26977;SDS011;56314;48.088;11.642;2023-02-15T12:58:32;17.30;;;11.07;;
26977;SDS011;56314;48.088;11.642;2023-02-15T13:03:33;17.05;;;11.35;;
26977;SDS011;56314;48.088;11.642;2023-02-15T13:05:59;17.70;;;11.68;;
26977;SDS011;56314;48.088;11.642;2023-02-15T13:08:28;24.55;;;12.15;;
26977;SDS011;56314;48.088;11.642;2023-02-15T13:10:57;16.50;;;11.23;;
26977;SDS011;56314;48.088;11.642;2023-02-15T13:13:26;21.35;;;11.77;;
26977;SDS011;56314;48.088;11.642;2023-02-15T13:15:55;16.42;;;11.40;;
26977;SDS011;56314;48.088;11.642;2023-02-15T13:21:24;20.38;;;10.55;;
26977;SDS011;56314;48.088;11.642;2023-02-15T13:23:57;19.95;;;11.55;;
26977;SDS011;56314;48.088;11.642;2023-02-15T13:26:26;27.42;;;11.52;;
26977;SDS011;56314;48.088;11.642;2023-02-15T13:28:56;21.98;;;13.05;;
26977;SDS011;56314;48.088;11.642;2023-02-15T13:31:26;20.02;;;11.93;;
26977;SDS011;56314;48.088;11.642;2023-02-15T13:33:58;18.13;;;11.70;;
26977;SDS011;56314;48.088;11.642;2023-02-15T13:39:40;22.58;;;12.63;;
26977;SDS011;56314;48.088;11.642;2023-02-15T13:42:22;24.40;;;12.95;;
26977;SDS011;56314;48.088;11.642;2023-02-15T14:01:50;20.08;;;12.73;;
26977;SDS011;56314;48.088;11.642;2023-02-15T14:07:20;24.10;;;13.10;;
26977;SDS011;56314;48.088;11.642;2023-02-15T14:15:47;19.30;;;14.15;;
26977;SDS011;56314;48.088;11.642;2023-02-15T14:27:00;24.13;;;14.70;;
26977;SDS011;56314;48.088;11.642;2023-02-15T14:35:04;24.42;;;15.85;;
26977;SDS011;56314;48.088;11.642;2023-02-15T14:40:04;19.03;;;14.13;;
26977;SDS011;56314;48.088;11.642;2023-02-15T14:42:55;25.73;;;16.95;;
26977;SDS011;56314;48.088;11.642;2023-02-15T14:45:35;20.25;;;15.02;;
26977;SDS011;56314;48.088;11.642;2023-02-15T14:48:12;31.67;;;17.20;;
26977;SDS011;56314;48.088;11.642;2023-02-15T14:50:41;27.77;;;14.95;;
26977;SDS011;56314;48.088;11.642;2023-02-15T14:53:36;36.72;;;21.48;;
26977;SDS011;56314;48.088;11.642;2023-02-15T15:01:17;21.27;;;15.55;;
26977;SDS011;56314;48.088;11.642;2023-02-15T15:03:54;22.63;;;15.20;;
26977;SDS011;56314;48.088;11.642;2023-02-15T15:06:26;23.17;;;16.08;;
26977;SDS011;56314;48.088;11.642;2023-02-15T15:08:54;25.55;;;16.70;;
26977;SDS011;56314;48.088;11.642;2023-02-15T15:13:54;24.85;;;16.35;;
26977;SDS011;56314;48.088;11.642;2023-02-15T15:18:56;26.75;;;16.20;;
26977;SDS011;56314;48.088;11.642;2023-02-15T15:29:46;26.55;;;17.63;;
26977;SDS011;56314;48.088;11.642;2023-02-15T15:32:11;29.77;;;17.40;;
26977;SDS011;56314;48.088;11.642;2023-02-15T15:42:37;28.48;;;17.65;;
26977;SDS011;56314;48.088;11.642;2023-02-15T15:45:19;29.52;;;18.20;;
26977;SDS011;56314;48.088;11.642;2023-02-15T15:50:53;33.05;;;18.58;;
26977;SDS011;56314;48.088;11.642;2023-02-15T15:53:25;32.42;;;21.20;;
26977;SDS011;56314;48.088;11.642;2023-02-15T15:55:55;32.83;;;19.25;;
26977;SDS011;56314;48.088;11.642;2023-02-15T15:58:27;31.77;;;19.17;;
26977;SDS011;56314;48.088;11.642;2023-02-15T16:00:57;31.45;;;19.27;;
26977;SDS011;56314;48.088;11.642;2023-02-15T16:03:28;31.52;;;19.45;;
26977;SDS011;56314;48.088;11.642;2023-02-15T16:05:54;35.03;;;20.25;;
26977;SDS011;56314;48.088;11.642;2023-02-15T16:10:53;27.85;;;18.55;;
26977;SDS011;56314;48.088;11.642;2023-02-15T16:13:19;38.63;;;26.42;;
26977;SDS011;56314;48.088;11.642;2023-02-15T16:15:45;33.78;;;19.30;;
26977;SDS011;56314;48.088;11.642;2023-02-15T16:18:17;32.15;;;20.45;;
26977;SDS011;56314;48.088;11.642;2023-02-15T16:20:50;31.52;;;20.17;;
26977;SDS011;56314;48.088;11.642;2023-02-15T16:23:26;30.42;;;18.75;;
26977;SDS011;56314;48.088;11.642;2023-02-15T16:26:12;34.20;;;20.08;;
26977;SDS011;56314;48.088;11.642;2023-02-15T16:28:52;32.53;;;20.20;;
26977;SDS011;56314;48.088;11.642;2023-02-15T16:31:19;37.80;;;19.35;;
26977;SDS011;56314;48.088;11.642;2023-02-15T16:33:47;29.02;;;19.60;;
26977;SDS011;56314;48.088;11.642;2023-02-15T16:36:26;35.55;;;20.65;;
26977;SDS011;56314;48.088;11.642;2023-02-15T16:41:21;34.80;;;21.23;;
26977;SDS011;56314;48.088;11.642;2023-02-15T16:43:50;30.70;;;19.73;;
26977;SDS011;56314;48.088;11.642;2023-02-15T16:46:27;30.60;;;20.75;;
26977;SDS011;56314;48.088;11.642;2023-02-15T16:48:57;32.20;;;21.10;;
26977;SDS011;56314;48.088;11.642;2023-02-15T16:51:28;35.70;;;20.95;;
26977;SDS011;56314;48.088;11.642;2023-02-15T16:53:55;29.55;;;20.00;;
26977;SDS011;56314;48.088;11.642;2023-02-15T16:56:25;37.83;;;21.20;;
26977;SDS011;56314;48.088;11.642;2023-02-15T16:58:55;39.67;;;22.77;;
26977;SDS011;56314;48.088;11.642;2023-02-15T17:01:23;36.10;;;21.65;;
26977;SDS011;56314;48.088;11.642;2023-02-15T17:03:51;36.30;;;22.65;;
26977;SDS011;56314;48.088;11.642;2023-02-15T17:06:37;33.42;;;21.58;;
26977;SDS011;56314;48.088;11.642;2023-02-15T17:09:03;37.78;;;23.45;;
26977;SDS011;56314;48.088;11.642;2023-02-15T17:11:49;37.40;;;22.60;;
26977;SDS011;56314;48.088;11.642;2023-02-15T17:14:18;41.50;;;23.15;;
26977;SDS011;56314;48.088;11.642;2023-02-15T17:19:46;28.65;;;17.63;;
26977;SDS011;56314;48.088;11.642;2023-02-15T17:22:25;41.00;;;23.60;;
26977;SDS011;56314;48.088;11.642;2023-02-15T17:25:02;52.38;;;26.65;;
26977;SDS011;56314;48.088;11.642;2023-02-15T17:27:29;40.50;;;23.55;;
26977;SDS011;56314;48.088;11.642;2023-02-15T17:29:58;38.20;;;23.27;;
26977;SDS011;56314;48.088;11.642;2023-02-15T17:32:30;39.95;;;23.42;;
26977;SDS011;56314;48.088;11.642;2023-02-15T17:35:18;42.75;;;24.30;;